Aérodrome :
LOGIN :

S'inscrire | Disclaimer

   EN    FR    IT 

 










Légende :    VFR   VFR Marginal   IFR   IFR Intensif   IFR Très Intensif
Visi : 
Plafond : 
>= 8 km
>= 3000ft
5 à 8 km
1000 à 3000 ft
1500m à 5 km
500 à 1000 ft
800 à 1500m
200 à 500 ft
< 800m
< 200 ft
Symboles :   Orages  Brouillard  Fortes neiges  Fortes précipitations  Vent > 20 kt
SIGMETs :   Divers  Orages  Givrage  Turbulence  Onde Orograph.  Cendres Volcan.







- Altitude de l'aérodrome : 433 ft
- Voir les cartes d'approche


LFOC - Chateaudun

DERNIER METAR :
  • 200700Z AUTO 22007KT 0650 0600 R28/0800U FG VV/// 15/15 Q1020 BECMG 9999 NSW SCT018

METARs EXPIRÉS :
  • 200630Z AUTO 22007KT 0550 R28/0800N FG VV/// 14/14 Q1020 BECMG 9999 NSW SCT018
  • 200600Z AUTO 21007KT 1000 R28/1400U BCFG VV/// 14/14 Q1020 BECMG 9999 NSW BKN010
  • 200530Z AUTO 20006KT 1600 1000 R28/1500D BR VV/// 13/13 Q1020 BECMG 9999 NSW BKN010
  • 200500Z AUTO 21006KT 9000 BKN002 OVC006 14/13 Q1020 TEMPO VV///
  • 200430Z AUTO 20006KT 9999 OVC005 14/13 Q1020
  • 200400Z AUTO 19007KT 9999 SCT006 SCT130 12/11 Q1020

TAF TAF LFOC
Valide du 19 à 15h jusqu'au 20 à 15h UTC


191400Z 1915/2015 23015KT 9999 SCT045
BECMG 1918/1920 21005KT
PROB40
TEMPO 2003/2008 4000 BR OVC003
Pas de NOTAMs connus pour ce terrain.



MET'MAP, la Météo Aéronautique d'un coup d'oeil ! - Copyright ORBIFLY Décembre 2007 - Disclaimer

ORBIFLY MET'MAP TEAM :

Programmation & Développement : Alexandra Zaïnal
Conception & Développement : Baudouin d'Aumeries
Co-Programmation & Développement : Marc-Olivier Méhu
Soutien technique & logistique : Manuel Goepfert

Contact : metmap@orbifly.com




SOURCES & CREDITS :

   NOAA